TimeEST,TemperatureF,Dew PointF,Humidity,Sea Level PressureIn,VisibilityMPH,Wind Direction,Wind SpeedMPH,Gust SpeedMPH,PrecipitationIn,Events,Conditions,WindDirDegrees,DateUTC
12:15 AM,28.6,22.1,77,30.40,7.0,North,3.5,-,N/A,,Clear,350,2013-03-08 05:15:00
12:35 AM,28.2,21.6,76,30.40,7.0,North,3.5,-,N/A,,Clear,350,2013-03-08 05:35:00
12:55 AM,27.3,21.2,78,30.40,7.0,North,3.5,-,N/A,Snow,Light Snow,10,2013-03-08 05:55:00
1:15 AM,27.1,21.4,79,30.40,7.0,North,3.5,-,N/A,,Clear,10,2013-03-08 06:15:00
1:35 AM,28.0,21.4,76,30.40,7.0,North,3.5,-,N/A,Snow,Light Snow,360,2013-03-08 06:35:00
1:55 AM,27.7,21.0,76,30.41,7.0,North,3.5,-,N/A,Snow,Light Snow,360,2013-03-08 06:55:00
2:15 AM,27.1,20.5,76,30.41,7.0,North,3.5,-,N/A,Snow,Light Snow,10,2013-03-08 07:15:00
2:35 AM,26.1,19.6,76,30.41,7.0,North,3.5,-,N/A,,Clear,10,2013-03-08 07:35:00
2:55 AM,23.4,18.9,83,30.41,5.0,North,3.5,-,N/A,,Clear,350,2013-03-08 07:55:00
3:15 AM,23.4,19.2,84,30.41,7.0,North,4.6,-,N/A,,Clear,10,2013-03-08 08:15:00
3:35 AM,23.7,19.2,83,30.41,10.0,North,3.5,-,N/A,,Clear,350,2013-03-08 08:35:00
3:55 AM,22.3,17.8,83,30.41,5.0,Calm,Calm,-,N/A,Snow,Light Snow,0,2013-03-08 08:55:00
4:15 AM,21.0,17.4,86,30.41,7.0,Calm,Calm,-,N/A,Snow,Light Snow,0,2013-03-08 09:15:00
4:35 AM,21.0,17.8,87,30.42,7.0,Calm,Calm,-,N/A,,Clear,0,2013-03-08 09:35:00
4:55 AM,21.2,18.1,88,30.43,5.0,Calm,Calm,-,N/A,Snow,Light Snow,0,2013-03-08 09:55:00
5:15 AM,20.8,18.0,89,30.43,5.0,Calm,Calm,-,N/A,Snow,Light Snow,0,2013-03-08 10:15:00
5:35 AM,20.1,17.4,89,30.44,4.0,Calm,Calm,-,N/A,Snow,Light Snow,0,2013-03-08 10:35:00
5:55 AM,20.3,18.0,91,30.45,4.0,Calm,Calm,-,N/A,Snow,Light Snow,0,2013-03-08 10:55:00
6:15 AM,20.8,18.3,90,30.45,5.0,Calm,Calm,-,N/A,Snow,Light Snow,0,2013-03-08 11:15:00
6:35 AM,20.5,18.1,91,30.45,5.0,Calm,Calm,-,N/A,Snow,Light Snow,0,2013-03-08 11:35:00
7:15 AM,20.5,18.9,93,30.45,4.0,ENE,3.5,-,N/A,Snow,Light Snow,70,2013-03-08 12:15:00
7:35 AM,20.5,18.5,92,30.45,4.0,Calm,Calm,-,N/A,,Clear,0,2013-03-08 12:35:00
7:55 AM,20.7,19.0,93,30.46,4.0,Calm,Calm,-,N/A,,Clear,0,2013-03-08 12:55:00
8:15 AM,21.9,20.3,93,30.46,4.0,Calm,Calm,-,N/A,,Clear,0,2013-03-08 13:15:00
8:35 AM,23.7,21.4,91,30.47,4.0,Calm,Calm,-,N/A,,Clear,0,2013-03-08 13:35:00
8:55 AM,25.0,21.6,87,30.48,7.0,Calm,Calm,-,N/A,,Clear,0,2013-03-08 13:55:00
9:15 AM,26.6,21.9,82,30.48,5.0,Calm,Calm,-,N/A,,Haze,0,2013-03-08 14:15:00
9:35 AM,29.5,21.9,73,30.48,10.0,East,3.5,-,N/A,,Clear,80,2013-03-08 14:35:00
9:55 AM,31.5,22.1,68,30.48,7.0,ESE,3.5,-,N/A,,Clear,110,2013-03-08 14:55:00
10:15 AM,32.4,21.7,65,30.48,10.0,ESE,4.6,-,N/A,,Clear,120,2013-03-08 15:15:00
10:35 AM,33.3,21.0,61,30.49,7.0,ESE,6.9,-,N/A,,Clear,110,2013-03-08 15:35:00
10:55 AM,33.8,21.0,60,30.48,10.0,SE,5.8,-,N/A,,Clear,140,2013-03-08 15:55:00
11:15 AM,34.0,21.7,61,30.48,10.0,SSE,4.6,-,N/A,,Clear,160,2013-03-08 16:15:00
11:35 AM,34.5,21.6,59,30.48,10.0,SSE,5.8,-,N/A,,Clear,160,2013-03-08 16:35:00
11:55 AM,34.7,21.2,58,30.47,10.0,SSE,5.8,-,N/A,,Clear,150,2013-03-08 16:55:00
12:15 PM,34.9,21.0,57,30.46,10.0,South,4.6,-,N/A,,Clear,170,2013-03-08 17:15:00
12:35 PM,35.2,20.8,56,30.46,7.0,SE,3.5,-,N/A,,Clear,130,2013-03-08 17:35:00
12:55 PM,35.6,21.6,57,30.46,10.0,South,5.8,-,N/A,,Clear,190,2013-03-08 17:55:00
1:15 PM,35.6,21.9,58,30.46,10.0,SSE,4.6,-,N/A,,Clear,150,2013-03-08 18:15:00
1:35 PM,35.8,22.3,58,30.46,7.0,SSW,4.6,-,N/A,,Clear,200,2013-03-08 18:35:00
1:55 PM,36.0,22.1,57,30.45,10.0,South,5.8,-,N/A,,Clear,170,2013-03-08 18:55:00
2:15 PM,36.1,21.6,56,30.45,7.0,South,4.6,-,N/A,,Clear,170,2013-03-08 19:15:00
2:35 PM,36.3,21.4,55,30.44,7.0,South,4.6,-,N/A,,Clear,190,2013-03-08 19:35:00
2:55 PM,36.5,21.4,54,30.43,10.0,South,4.6,-,N/A,,Clear,180,2013-03-08 19:55:00
3:15 PM,36.5,21.7,55,30.42,7.0,SSE,4.6,-,N/A,,Clear,160,2013-03-08 20:15:00
3:35 PM,36.9,21.9,55,30.42,10.0,SE,6.9,-,N/A,,Clear,140,2013-03-08 20:35:00
3:55 PM,37.2,21.7,54,30.42,7.0,SE,5.8,-,N/A,,Clear,130,2013-03-08 20:55:00
4:15 PM,37.0,21.6,54,30.41,5.0,SE,5.8,-,N/A,,Haze,140,2013-03-08 21:15:00
4:35 PM,37.2,21.2,52,30.41,10.0,SE,5.8,-,N/A,,Clear,140,2013-03-08 21:35:00
4:55 PM,37.0,21.7,54,30.40,7.0,SE,6.9,-,N/A,,Clear,130,2013-03-08 21:55:00
5:15 PM,36.9,22.1,55,30.40,7.0,ESE,4.6,-,N/A,,Clear,120,2013-03-08 22:15:00
5:35 PM,36.5,21.4,54,30.40,5.0,ESE,5.8,-,N/A,,Haze,110,2013-03-08 22:35:00
5:55 PM,36.0,21.4,55,30.40,7.0,East,5.8,-,N/A,,Clear,90,2013-03-08 22:55:00
6:15 PM,35.2,21.4,57,30.40,10.0,East,5.8,-,N/A,,Clear,80,2013-03-08 23:15:00
6:35 PM,34.7,21.0,57,30.40,7.0,East,8.1,-,N/A,,Clear,90,2013-03-08 23:35:00
6:55 PM,33.6,20.8,59,30.40,10.0,East,4.6,-,N/A,,Clear,80,2013-03-08 23:55:00
7:15 PM,33.1,20.5,60,30.41,10.0,East,4.6,-,N/A,,Clear,90,2013-03-09 00:15:00
7:35 PM,32.4,20.3,61,30.41,10.0,East,5.8,-,N/A,,Clear,90,2013-03-09 00:35:00
7:55 PM,32.0,20.3,62,30.40,10.0,East,4.6,-,N/A,,Clear,90,2013-03-09 00:55:00
8:15 PM,31.8,20.1,62,30.40,7.0,ESE,3.5,-,N/A,Snow,Light Snow,110,2013-03-09 01:15:00
8:35 PM,30.7,20.8,67,30.41,7.0,ESE,3.5,-,N/A,Snow,Light Snow,120,2013-03-09 01:35:00
8:55 PM,30.2,21.2,69,30.41,7.0,Calm,Calm,-,N/A,Snow,Light Snow,0,2013-03-09 01:55:00
9:15 PM,30.6,20.5,66,30.41,5.0,ESE,4.6,-,N/A,Snow,Light Snow,110,2013-03-09 02:15:00
9:35 PM,29.7,20.3,68,30.40,10.0,East,4.6,-,N/A,,Clear,100,2013-03-09 02:35:00
9:55 PM,29.5,20.3,69,30.39,7.0,East,5.8,-,N/A,Snow,Light Snow,100,2013-03-09 02:55:00
10:15 PM,29.5,20.7,70,30.39,7.0,East,5.8,-,N/A,Snow,Light Snow,100,2013-03-09 03:15:00
10:35 PM,30.0,21.2,70,30.39,7.0,ESE,5.8,-,N/A,,Clear,110,2013-03-09 03:35:00
10:55 PM,29.7,21.2,71,30.39,7.0,ESE,4.6,-,N/A,,Clear,110,2013-03-09 03:55:00
11:15 PM,29.7,21.0,70,30.39,7.0,ESE,3.5,-,N/A,Snow,Light Snow,110,2013-03-09 04:15:00
11:35 PM,28.9,21.0,72,30.39,7.0,ESE,4.6,-,N/A,Snow,Light Snow,110,2013-03-09 04:35:00
11:55 PM,28.6,21.2,74,30.38,10.0,ESE,6.9,-,N/A,,Clear,110,2013-03-09 04:55:00